createdAt,value
2022-09-02T00:01:30.415Z,99163.91
2022-09-02T00:04:03.240Z,99168.28
2022-09-02T00:06:31.610Z,99169.25
2022-09-02T00:08:59.717Z,99168.34
2022-09-02T00:11:29.144Z,99164.06
2022-09-02T00:13:57.274Z,99158.94
2022-09-02T00:16:25.306Z,99156.44
2022-09-02T00:18:53.688Z,99159.94
2022-09-02T00:21:22.069Z,99162.63
2022-09-02T00:23:49.522Z,99161.97
2022-09-02T00:26:17.253Z,99162.88
2022-09-02T00:28:51.219Z,99164.69
2022-09-02T00:31:23.642Z,99156.06
2022-09-02T00:33:51.846Z,99157.88
2022-09-02T00:36:18.921Z,99165.84
2022-09-02T00:38:46.405Z,99166.78
2022-09-02T00:41:14.007Z,99162.47
2022-09-02T00:43:45.408Z,99161.69
2022-09-02T00:46:14.686Z,99151.34
2022-09-02T00:48:56.012Z,99152.28
2022-09-02T00:51:24.508Z,99154.88
2022-09-02T00:53:51.656Z,99155.84
2022-09-02T00:56:26.791Z,99155.03
2022-09-02T00:58:55.882Z,99150.72
2022-09-02T01:01:23.281Z,99157.75
2022-09-02T01:03:51.043Z,99155.22
2022-09-02T01:06:24.468Z,99157.03
2022-09-02T01:09:07.498Z,99157.03
2022-09-02T01:11:48.089Z,99158.75
2022-09-02T01:14:16.723Z,99150.19
2022-09-02T01:16:50.839Z,99146.78
2022-09-02T01:19:49.797Z,99153.91
2022-09-02T01:22:18.478Z,99163.59
2022-09-02T01:24:45.452Z,99158.34
2022-09-02T01:27:16.333Z,99159.25
2022-09-02T01:29:43.801Z,99156.66
2022-09-02T01:32:12.151Z,99157.63
2022-09-02T01:34:38.968Z,99166.41
2022-09-02T01:37:06.091Z,99161.25
2022-09-02T01:39:33.306Z,99159.59
2022-09-02T01:42:01.148Z,99159.69
2022-09-02T01:44:28.476Z,99155.34
2022-09-02T01:46:56.080Z,99155.34
2022-09-02T01:49:23.686Z,99162.31
2022-09-02T01:51:54.834Z,99162.31
2022-09-02T01:54:23.132Z,99156.25
2022-09-02T01:56:50.003Z,99164.97
2022-09-02T01:59:18.139Z,99165.03
2022-09-02T02:01:46.053Z,99165.03
2022-09-02T02:04:13.649Z,99168.50
2022-09-02T02:06:42.965Z,99165.91
2022-09-02T02:09:11.605Z,99167.69
2022-09-02T02:11:39.202Z,99158.31
2022-09-02T02:14:06.422Z,99155.66
2022-09-02T02:16:33.297Z,99159.19
2022-09-02T02:19:00.294Z,99155.75
2022-09-02T02:21:27.546Z,99154.91
2022-09-02T02:23:55.159Z,99154.06
2022-09-02T02:26:21.946Z,99153.25
2022-09-02T02:28:49.317Z,99155.00
2022-09-02T02:31:16.256Z,99154.09
2022-09-02T02:33:43.133Z,99159.41
2022-09-02T02:36:10.680Z,99160.34
2022-09-02T02:38:38.443Z,99164.75
2022-09-02T02:41:06.553Z,99156.13
2022-09-02T02:43:36.999Z,99161.38
2022-09-02T02:46:04.974Z,99159.63
2022-09-02T02:48:33.357Z,99161.44
2022-09-02T02:51:00.639Z,99164.09
2022-09-02T02:53:29.726Z,99165.94
2022-09-02T02:55:57.204Z,99160.69
2022-09-02T02:58:24.378Z,99158.19
2022-09-02T03:00:52.104Z,99168.72
2022-09-02T03:03:19.930Z,99167.84
2022-09-02T03:05:47.681Z,99166.13
2022-09-02T03:08:15.821Z,99158.34
2022-09-02T03:10:44.311Z,99160.16
2022-09-02T03:13:12.128Z,99161.94
2022-09-02T03:15:39.741Z,99161.09
2022-09-02T03:18:07.275Z,99161.13
2022-09-02T03:20:35.223Z,99161.19
2022-09-02T03:23:02.230Z,99154.28
2022-09-02T03:25:35.865Z,99151.75
2022-09-02T03:28:04.275Z,99157.84
2022-09-02T03:30:32.432Z,99161.31
2022-09-02T03:33:04.058Z,99169.13
2022-09-02T03:35:33.219Z,99170.06
2022-09-02T03:38:01.210Z,99174.44
2022-09-02T03:40:28.744Z,99169.22
2022-09-02T03:43:00.198Z,99173.53
2022-09-02T03:45:28.086Z,99179.69
2022-09-02T03:47:55.217Z,99181.50
2022-09-02T03:50:25.981Z,99174.56
2022-09-02T03:52:53.680Z,99182.38
2022-09-02T03:55:20.870Z,99186.66
2022-09-02T03:57:48.331Z,99184.78
2022-09-02T04:00:17.823Z,99192.41
2022-09-02T04:02:44.874Z,99190.50
2022-09-02T04:05:17.133Z,99189.56
2022-09-02T04:07:47.138Z,99193.78
2022-09-02T04:10:15.408Z,99192.91
2022-09-02T04:12:42.652Z,99201.56
2022-09-02T04:15:12.055Z,99203.22
2022-09-02T04:17:41.223Z,99203.94
2022-09-02T04:20:11.622Z,99191.34
2022-09-02T04:22:38.537Z,99198.53
2022-09-02T04:25:06.761Z,99194.16
2022-09-02T04:27:35.277Z,99199.31
2022-09-02T04:30:02.297Z,99191.31
2022-09-02T04:32:29.343Z,99205.53
2022-09-02T04:34:57.341Z,99203.06
2022-09-02T04:37:24.311Z,99206.59
2022-09-02T04:39:52.757Z,99212.75
2022-09-02T04:42:19.961Z,99212.84
2022-09-02T04:44:46.920Z,99217.03
2022-09-02T04:47:13.756Z,99216.16
2022-09-02T04:49:43.276Z,99207.84
2022-09-02T04:52:10.709Z,99213.50
2022-09-02T04:54:37.800Z,99220.22
2022-09-02T04:57:05.127Z,99212.28
2022-09-02T04:59:36.506Z,99214.09
2022-09-02T05:02:05.229Z,99212.47
2022-09-02T05:04:33.603Z,99208.97
2022-09-02T05:07:03.791Z,99213.16
2022-09-02T05:09:31.735Z,99208.78
2022-09-02T05:11:58.827Z,99207.28
2022-09-02T05:14:26.004Z,99204.72
2022-09-02T05:16:54.095Z,99206.28
2022-09-02T05:19:23.509Z,99209.09
2022-09-02T05:21:55.340Z,99212.81
2022-09-02T05:24:26.413Z,99218.47
2022-09-02T05:26:53.938Z,99207.03
2022-09-02T05:29:21.142Z,99214.19
2022-09-02T05:31:48.920Z,99218.72
2022-09-02T05:34:17.148Z,99221.78
2022-09-02T05:36:44.619Z,99211.28
2022-09-02T05:39:11.827Z,99211.72
2022-09-02T05:41:38.904Z,99214.03
2022-09-02T05:44:07.020Z,99214.22
2022-09-02T05:46:35.015Z,99211.41
2022-09-02T05:49:17.714Z,99216.91
2022-09-02T05:51:49.377Z,99208.38
2022-09-02T05:54:23.084Z,99213.34
2022-09-02T05:56:54.060Z,99211.25
2022-09-02T05:59:22.580Z,99207.88
2022-09-02T06:01:50.122Z,99204.97
2022-09-02T06:04:18.330Z,99205.75
2022-09-02T06:06:45.938Z,99205.72
2022-09-02T06:09:16.434Z,99208.38
2022-09-02T06:11:45.736Z,99205.03
2022-09-02T06:14:14.179Z,99200.75
2022-09-02T06:16:42.688Z,99203.38
2022-09-02T06:19:10.086Z,99204.31
2022-09-02T06:21:38.384Z,99205.25
2022-09-02T06:24:11.440Z,99206.25
2022-09-02T06:26:39.895Z,99196.03
2022-09-02T06:29:08.074Z,99195.44
2022-09-02T06:31:35.931Z,99206.84
2022-09-02T06:34:04.891Z,99204.75
2022-09-02T06:36:31.949Z,99203.84
2022-09-02T06:39:00.329Z,99210.31
2022-09-02T06:41:30.301Z,99207.41
2022-09-02T06:44:00.095Z,99210.91
2022-09-02T06:46:37.753Z,99208.34
2022-09-02T06:49:07.193Z,99203.31
2022-09-02T06:51:41.127Z,99204.34
2022-09-02T06:54:11.547Z,99198.16
2022-09-02T06:56:44.884Z,99197.81
2022-09-02T06:59:15.821Z,99202.41
2022-09-02T07:01:44.290Z,99201.50
2022-09-02T07:04:30.472Z,99193.72
2022-09-02T07:06:58.199Z,99201.00
2022-09-02T07:09:31.452Z,99195.56
2022-09-02T07:12:05.094Z,99197.38
2022-09-02T07:14:40.896Z,99199.13
2022-09-02T07:17:10.192Z,99195.50
2022-09-02T07:19:37.950Z,99191.97
2022-09-02T07:22:06.350Z,99184.91
2022-09-02T07:24:33.512Z,99194.41
2022-09-02T07:27:00.467Z,99203.28
2022-09-02T07:29:27.411Z,99194.88
2022-09-02T07:31:54.801Z,99199.41
2022-09-02T07:34:22.070Z,99193.84
2022-09-02T07:36:49.181Z,99198.06
2022-09-02T07:39:18.070Z,99192.97
2022-09-02T07:41:48.304Z,99200.22
2022-09-02T07:44:16.384Z,99203.97
2022-09-02T07:46:44.443Z,99205.13
2022-09-02T07:49:15.747Z,99195.06
2022-09-02T07:51:49.161Z,99193.16
2022-09-02T07:54:18.974Z,99190.00
2022-09-02T07:56:45.885Z,99186.41
2022-09-02T07:59:12.820Z,99186.72
2022-09-02T08:01:40.399Z,99192.28
2022-09-02T08:04:07.312Z,99192.97
2022-09-02T08:06:35.098Z,99184.53
2022-09-02T08:09:05.459Z,99191.28
2022-09-02T08:11:35.435Z,99184.63
2022-09-02T08:14:03.255Z,99186.00
2022-09-02T08:16:30.866Z,99185.16
2022-09-02T08:18:58.436Z,99190.69
2022-09-02T08:21:27.955Z,99179.75
2022-09-02T08:23:55.297Z,99196.91
2022-09-02T08:26:22.269Z,99179.63
2022-09-02T08:28:50.230Z,99176.31
2022-09-02T08:31:17.376Z,99171.41
2022-09-02T08:33:44.924Z,99173.56
2022-09-02T08:36:14.821Z,99165.88
2022-09-02T08:38:42.896Z,99172.50
2022-09-02T08:41:24.009Z,99163.72
2022-09-02T08:43:54.039Z,99167.63
2022-09-02T08:46:26.067Z,99166.72
2022-09-02T08:48:59.559Z,99172.28
2022-09-02T08:51:56.385Z,99153.16
2022-09-02T08:54:48.687Z,99157.91
2022-09-02T08:57:15.680Z,99164.06
2022-09-02T08:59:44.202Z,99158.28
2022-09-02T09:02:56.798Z,99150.97
2022-09-02T09:05:34.409Z,99143.72
2022-09-02T09:08:14.643Z,99138.88
2022-09-02T09:11:12.848Z,99129.97
2022-09-02T09:14:10.509Z,99132.66
2022-09-02T09:16:57.046Z,99137.09
2022-09-02T09:19:47.589Z,99144.75
2022-09-02T09:22:18.736Z,99131.56
2022-09-02T09:24:50.185Z,99136.06
2022-09-02T09:27:22.552Z,99139.25
2022-09-02T09:29:51.591Z,99133.50
2022-09-02T09:32:33.634Z,99143.47
2022-09-02T09:35:09.125Z,99136.25
2022-09-02T09:37:38.577Z,99126.16
2022-09-02T09:40:21.165Z,99127.13
2022-09-02T09:42:53.170Z,99125.03
2022-09-02T09:45:27.944Z,99110.56
2022-09-02T09:48:28.015Z,99134.22
2022-09-02T09:50:57.641Z,99128.38
2022-09-02T09:53:30.407Z,99120.16
2022-09-02T09:56:01.700Z,99119.88
2022-09-02T09:58:49.748Z,99107.44
2022-09-02T10:01:35.815Z,99107.47
2022-09-02T10:04:42.268Z,99117.84
2022-09-02T10:06:57.945Z,99118.56
2022-09-02T10:09:35.033Z,99110.25
2022-09-02T10:12:05.181Z,99100.59
2022-09-02T10:14:53.489Z,99098.44
2022-09-02T10:17:48.349Z,99097.03
2022-09-02T10:20:48.669Z,99086.28
2022-09-02T10:23:36.666Z,99107.88
2022-09-02T10:29:07.206Z,99082.94
2022-09-02T10:31:55.988Z,99086.25
2022-09-02T10:34:44.097Z,99100.94
2022-09-02T10:37:27.155Z,99088.78
2022-09-02T10:40:09.408Z,99093.34
2022-09-02T10:43:04.632Z,99093.78
2022-09-02T10:45:35.439Z,99088.84
2022-09-02T10:48:20.469Z,99097.09
2022-09-02T10:50:56.211Z,99115.22
2022-09-02T10:53:29.404Z,99116.38
2022-09-02T10:56:06.665Z,99096.78
2022-09-02T10:58:33.663Z,99100.31
2022-09-02T11:01:00.635Z,99082.59
2022-09-02T11:03:39.214Z,99114.47
2022-09-02T11:06:19.652Z,99100.72
2022-09-02T11:08:57.737Z,99091.97
2022-09-02T11:11:37.316Z,99097.06
2022-09-02T11:14:20.990Z,99098.69
2022-09-02T11:16:55.160Z,99093.38
2022-09-02T11:19:59.832Z,99100.69
2022-09-02T11:22:48.735Z,99095.38
2022-09-02T11:25:29.568Z,99089.69
2022-09-02T11:28:29.205Z,99088.94
2022-09-02T11:31:00.480Z,99091.53
2022-09-02T11:33:43.479Z,99083.16
2022-09-02T11:36:11.500Z,99088.06
2022-09-02T11:38:56.207Z,99081.88
2022-09-02T11:41:35.815Z,99066.50
2022-09-02T11:44:22.174Z,99064.19
2022-09-02T11:47:29.399Z,99074.28
2022-09-02T11:50:33.705Z,99069.88
2022-09-02T11:53:30.977Z,99068.66
2022-09-02T11:56:18.369Z,99067.59
2022-09-02T11:58:53.277Z,99064.81
2022-09-02T12:01:43.648Z,99060.47
2022-09-02T12:04:56.054Z,99058.91
2022-09-02T12:07:08.969Z,99055.72
2022-09-02T12:09:49.836Z,99043.94
2022-09-02T12:12:39.061Z,99048.16
2022-09-02T12:15:06.687Z,99047.97
2022-09-02T12:17:40.574Z,99048.94
2022-09-02T12:20:29.085Z,99047.56
2022-09-02T12:22:56.244Z,99046.50
2022-09-02T12:25:26.982Z,99041.22
2022-09-02T12:28:18.813Z,99046.19
2022-09-02T12:30:55.567Z,99048.25
2022-09-02T12:33:51.912Z,99049.66
2022-09-02T12:36:37.014Z,99036.06
2022-09-02T12:39:30.763Z,99043.13
2022-09-02T12:41:57.916Z,99023.03
2022-09-02T12:45:04.719Z,99037.88
2022-09-02T12:47:50.647Z,99033.41
2022-09-02T12:50:28.516Z,99031.16
2022-09-02T12:53:25.864Z,99028.91
2022-09-02T12:56:13.056Z,99028.63
2022-09-02T12:58:46.498Z,99026.94
2022-09-02T13:01:19.681Z,99021.41
2022-09-02T13:03:59.861Z,99022.94
2022-09-02T13:06:47.728Z,99023.25
2022-09-02T13:09:41.440Z,99026.50
2022-09-02T13:12:45.876Z,99027.31
2022-09-02T13:15:40.898Z,99012.66
2022-09-02T13:18:26.467Z,99024.91
2022-09-02T13:21:20.868Z,99014.69
2022-09-02T13:24:10.334Z,99011.16
2022-09-02T13:26:59.122Z,99010.38
2022-09-02T13:29:56.548Z,99004.56
2022-09-02T13:32:29.717Z,99013.34
2022-09-02T13:35:01.265Z,99017.56
2022-09-02T13:37:36.506Z,98994.63
2022-09-02T13:40:26.371Z,98995.22
2022-09-02T13:42:58.469Z,99004.03
2022-09-02T13:45:35.606Z,99006.25
2022-09-02T13:48:08.523Z,98999.25
2022-09-02T13:50:37.424Z,99000.25
2022-09-02T13:55:57.823Z,98999.31
2022-09-02T13:58:31.414Z,98990.56
2022-09-02T14:01:17.673Z,99000.09
2022-09-02T14:03:56.915Z,99022.19
2022-09-02T14:06:28.508Z,99000.94
2022-09-02T14:09:05.055Z,99006.25
2022-09-02T14:11:39.545Z,99005.31
2022-09-02T14:14:07.075Z,99002.16
2022-09-02T14:16:36.229Z,98996.47
2022-09-02T14:19:24.376Z,99002.56
2022-09-02T14:21:53.903Z,99004.56
2022-09-02T14:24:22.295Z,99003.84
2022-09-02T14:26:53.208Z,99022.59
2022-09-02T14:29:21.608Z,99012.00
2022-09-02T14:32:09.001Z,99013.38
2022-09-02T14:34:47.157Z,99009.88
2022-09-02T14:37:28.744Z,99010.72
2022-09-02T14:40:12.690Z,99003.13
2022-09-02T14:42:55.231Z,98998.00
2022-09-02T14:45:30.752Z,99005.50
2022-09-02T14:48:01.748Z,99005.50
2022-09-02T14:50:36.539Z,99002.50
2022-09-02T14:53:10.259Z,99011.63
2022-09-02T14:55:45.736Z,98997.78
2022-09-02T14:58:12.733Z,99001.84
2022-09-02T15:00:39.795Z,99008.28
2022-09-02T15:03:07.660Z,99000.50
2022-09-02T15:05:34.559Z,99000.50
2022-09-02T15:08:01.664Z,99008.06
2022-09-02T15:10:28.475Z,99000.44
2022-09-02T15:12:57.619Z,99002.75
2022-09-02T15:15:25.130Z,98999.50
2022-09-02T15:17:51.932Z,99001.44
2022-09-02T15:20:18.853Z,99000.13
2022-09-02T15:22:45.843Z,99004.00
2022-09-02T15:25:12.840Z,98999.66
2022-09-02T15:27:39.674Z,98999.78
2022-09-02T15:30:09.372Z,98999.66
2022-09-02T15:32:37.770Z,98999.78
2022-09-02T15:35:06.947Z,98999.78
2022-09-02T15:37:38.167Z,99000.00
2022-09-02T15:40:07.934Z,98998.31
2022-09-02T15:42:36.723Z,98990.28
2022-09-02T15:45:05.897Z,99003.66
2022-09-02T15:47:35.673Z,98993.22
2022-09-02T15:50:03.648Z,98996.00
2022-09-02T15:52:30.441Z,98989.22
2022-09-02T15:54:57.235Z,98992.00
2022-09-02T15:57:24.291Z,98993.97
2022-09-02T15:59:51.581Z,98989.69
2022-09-02T16:02:18.469Z,98986.28
2022-09-02T16:04:45.586Z,98987.28
2022-09-02T16:07:15.379Z,98984.13
2022-09-02T16:09:44.483Z,98985.63
2022-09-02T16:12:11.530Z,98983.06
2022-09-02T16:14:38.456Z,98988.63
2022-09-02T16:17:05.347Z,98985.25
2022-09-02T16:19:32.334Z,98982.56
2022-09-02T16:21:59.356Z,98980.38
2022-09-02T16:24:26.418Z,98991.31
2022-09-02T16:26:53.454Z,98995.22
2022-09-02T16:29:20.930Z,98982.22
2022-09-02T16:34:36.286Z,98991.91
2022-09-02T16:37:03.097Z,98988.50
2022-09-02T16:39:30.063Z,98982.69
2022-09-02T16:41:58.245Z,98983.91
2022-09-02T16:44:26.028Z,98991.19
2022-09-02T16:46:53.317Z,98997.09
2022-09-02T16:49:22.128Z,98986.78
2022-09-02T16:51:57.826Z,98992.47
2022-09-02T16:54:30.791Z,98990.63
2022-09-02T16:56:59.381Z,98990.00
2022-09-02T16:59:26.391Z,98994.84
2022-09-02T17:01:53.262Z,98991.78
2022-09-02T17:04:20.127Z,98993.00
2022-09-02T17:06:47.268Z,99001.97
2022-09-02T17:09:14.137Z,98991.88
2022-09-02T17:11:42.639Z,98985.69
2022-09-02T17:14:16.562Z,98994.66
2022-09-02T17:16:49.075Z,98998.41
2022-09-02T17:19:21.795Z,98995.97
2022-09-02T17:21:54.240Z,98985.31
2022-09-02T17:24:24.655Z,98991.84
2022-09-02T17:26:54.459Z,98991.34
2022-09-02T17:32:10.247Z,98991.03
2022-09-02T17:34:37.212Z,98993.97
2022-09-02T17:37:05.330Z,99000.25
2022-09-02T17:39:34.234Z,99002.06
2022-09-02T17:42:02.375Z,99000.59
2022-09-02T17:44:35.866Z,99002.66
2022-09-02T17:47:08.527Z,99002.75
2022-09-02T17:49:36.840Z,99000.94
2022-09-02T17:52:05.489Z,98998.59
2022-09-02T17:54:32.343Z,99011.09
2022-09-02T17:57:17.423Z,99005.22
2022-09-02T18:00:10.822Z,99011.75
2022-09-02T18:03:13.440Z,99011.94
2022-09-02T18:06:09.348Z,99011.69
2022-09-02T18:08:42.122Z,99018.94
2022-09-02T18:11:09.219Z,99016.38
2022-09-02T18:13:54.214Z,99010.28
2022-09-02T18:16:42.284Z,99021.09
2022-09-02T18:19:24.795Z,99012.22
2022-09-02T18:22:12.971Z,99018.75
2022-09-02T18:24:48.570Z,99024.28
2022-09-02T18:27:27.865Z,99014.94
2022-09-02T18:30:03.646Z,99013.03
2022-09-02T18:32:59.125Z,99010.56
2022-09-02T18:35:41.338Z,99019.78
2022-09-02T18:38:49.588Z,99019.13
2022-09-02T18:41:26.634Z,99027.00
2022-09-02T18:44:24.922Z,99026.28
2022-09-02T18:46:59.155Z,99029.03
2022-09-02T18:49:28.539Z,99024.69
2022-09-02T18:51:59.856Z,99028.50
2022-09-02T18:54:46.862Z,99028.84
2022-09-02T18:57:14.871Z,99025.19
2022-09-02T18:59:56.315Z,99026.28
2022-09-02T19:02:26.591Z,99024.59
2022-09-02T19:04:57.318Z,99025.66
2022-09-02T19:07:43.688Z,99024.78
2022-09-02T19:10:10.667Z,99027.75
2022-09-02T19:12:40.389Z,99036.59
2022-09-02T19:15:09.895Z,99032.25
2022-09-02T19:17:40.264Z,99026.50
2022-09-02T19:20:08.590Z,99032.78
2022-09-02T19:22:46.199Z,99036.81
2022-09-02T19:25:17.663Z,99037.78
2022-09-02T19:27:46.347Z,99036.28
2022-09-02T19:30:18.970Z,99029.59
2022-09-02T19:32:50.343Z,99035.88
2022-09-02T19:35:24.895Z,99039.47
2022-09-02T19:37:53.819Z,99042.22
2022-09-02T19:40:23.541Z,99047.00
2022-09-02T19:42:52.784Z,99049.88
2022-09-02T19:45:21.825Z,99037.63
2022-09-02T19:48:06.419Z,99042.31
2022-09-02T19:50:42.191Z,99041.56
2022-09-02T19:53:19.453Z,99042.63
2022-09-02T19:55:46.826Z,99039.22
2022-09-02T19:58:14.024Z,99043.88
2022-09-02T20:00:45.013Z,99044.09
2022-09-02T20:03:13.081Z,99046.94
2022-09-02T20:05:40.812Z,99041.75
2022-09-02T20:08:10.847Z,99040.13
2022-09-02T20:10:40.924Z,99041.41
2022-09-02T20:13:12.334Z,99047.97
2022-09-02T20:15:40.039Z,99048.94
2022-09-02T20:18:15.568Z,99048.28
2022-09-02T20:20:47.176Z,99052.00
2022-09-02T20:23:17.458Z,99047.53
2022-09-02T20:26:15.066Z,99051.47
2022-09-02T20:28:56.290Z,99055.34
2022-09-02T20:31:43.520Z,99060.22
2022-09-02T20:34:17.970Z,99057.88
2022-09-02T20:37:02.363Z,99050.94
2022-09-02T20:39:38.108Z,99058.06
2022-09-02T20:42:29.509Z,99061.69
2022-09-02T20:45:08.406Z,99060.50
2022-09-02T20:48:25.354Z,99060.78
2022-09-02T20:51:12.592Z,99052.13
2022-09-02T20:54:04.656Z,99046.91
2022-09-02T20:56:59.782Z,99043.50
2022-09-02T20:59:48.011Z,99039.25
2022-09-02T21:02:20.303Z,99050.00
2022-09-02T21:04:53.171Z,99045.59
2022-09-02T21:07:26.442Z,99044.84
2022-09-02T21:10:06.747Z,99046.00
2022-09-02T21:12:43.923Z,99051.56
2022-09-02T21:15:30.211Z,99054.34
2022-09-02T21:18:09.255Z,99044.84
2022-09-02T21:21:03.895Z,99053.88
2022-09-02T21:23:35.423Z,99060.13
2022-09-02T21:26:18.485Z,99054.94
2022-09-02T21:28:56.754Z,99061.38
2022-09-02T21:31:31.474Z,99059.66
2022-09-02T21:34:05.157Z,99059.66
2022-09-02T21:36:36.986Z,99069.34
2022-09-02T21:39:10.098Z,99068.59
2022-09-02T21:41:42.087Z,99069.63
2022-09-02T21:44:40.747Z,99069.81
2022-09-02T21:47:38.678Z,99070.09
2022-09-02T21:51:00.132Z,99071.34
2022-09-02T21:54:15.020Z,99061.00
2022-09-02T21:57:15.718Z,99069.16
2022-09-02T22:00:08.686Z,99071.25
2022-09-02T22:02:48.717Z,99068.78
2022-09-02T22:05:26.012Z,99071.72
2022-09-02T22:08:03.187Z,99060.34
2022-09-02T22:10:50.058Z,99064.97
2022-09-02T22:13:17.116Z,99062.59
2022-09-02T22:16:05.073Z,99059.19
2022-09-02T22:18:40.368Z,99055.84
2022-09-02T22:21:25.719Z,99056.13
2022-09-02T22:23:55.663Z,99054.63
2022-09-02T22:27:04.884Z,99050.53
2022-09-02T22:29:41.196Z,99049.84
2022-09-02T22:32:12.433Z,99057.16
2022-09-02T22:34:50.619Z,99051.16
2022-09-02T22:37:25.995Z,99048.69
2022-09-02T22:39:56.586Z,99054.19
2022-09-02T22:42:33.277Z,99048.97
2022-09-02T22:45:29.078Z,99044.78
2022-09-02T22:48:21.639Z,99042.34
2022-09-02T22:51:18.886Z,99046.88
2022-09-02T22:53:48.090Z,99047.78
2022-09-02T22:56:26.135Z,99041.84
2022-09-02T22:59:01.609Z,99036.69
2022-09-02T23:01:43.657Z,99036.81
2022-09-02T23:04:25.071Z,99033.38
2022-09-02T23:07:05.035Z,99035.16
2022-09-02T23:09:33.868Z,99035.28
2022-09-02T23:12:09.276Z,99026.50
2022-09-02T23:15:10.394Z,99027.63
2022-09-02T23:17:43.183Z,99033.00
2022-09-02T23:20:26.997Z,99032.94
2022-09-02T23:23:22.866Z,99018.91
2022-09-02T23:26:19.901Z,99023.44
2022-09-02T23:29:08.099Z,99019.09
2022-09-02T23:31:50.765Z,99028.16
2022-09-02T23:34:35.195Z,99015.09
2022-09-02T23:37:25.190Z,99009.81
2022-09-02T23:40:22.513Z,99005.44
2022-09-02T23:42:49.591Z,99014.16
2022-09-02T23:45:23.821Z,99015.88
2022-09-02T23:48:06.600Z,99019.44
2022-09-02T23:51:10.547Z,99025.78
2022-09-02T23:53:47.586Z,99020.41
2022-09-02T23:56:33.719Z,99023.13
2022-09-02T23:59:12.831Z,99022.28
